Time;durP1;ratioP1;P1;durP2;ratioP2;P2;SDS_P1;SDS_P2;PMS_P1;PMS_P2;Temp;Humidity;BMP_temperature;BMP_pressure;BME280_temperature;BME280_humidity;BME280_pressure;Samples;Min_cycle;Max_cycle;Signal;HPM_P1;HPM_P2
2022/07/10 00:00:20;;;;;;;;;;;20.80;72.10;;;;;;5026513;28;20008;-85
2022/07/10 00:02:46;;;;;;;;;;;20.80;72.70;;;;;;5027142;28;19915;-84
2022/07/10 00:05:12;;;;;;;;;;;20.70;72.80;;;;;;5027045;28;19913;-85
2022/07/10 00:07:37;;;;;;;;;;;20.60;73.20;;;;;;5026570;28;19948;-84
2022/07/10 00:10:03;;;;;;;;;;;20.50;73.70;;;;;;5026709;28;20437;-85
2022/07/10 00:12:29;;;;;;;;;;;20.50;74.00;;;;;;5026926;28;19924;-84
2022/07/10 00:14:55;;;;;;;;;;;20.50;74.10;;;;;;5009182;28;19909;-85
2022/07/10 00:17:20;;;;;;;;;;;20.50;74.20;;;;;;5027463;28;20008;-85
2022/07/10 00:19:46;;;;;;;;;;;20.40;74.60;;;;;;5026767;28;20015;-85
2022/07/10 00:22:11;;;;;;;;;;;20.40;74.90;;;;;;5025919;28;20298;-84
2022/07/10 00:24:37;;;;;;;;;;;20.30;75.40;;;;;;5026932;28;20338;-84
2022/07/10 00:27:02;;;;;;;;;;;20.30;75.60;;;;;;5026430;28;19917;-85
2022/07/10 00:29:28;;;;;;;;;;;20.20;76.10;;;;;;5026534;28;19909;-85
2022/07/10 00:31:53;;;;;;;;;;;20.20;76.50;;;;;;5026580;28;19943;-85
2022/07/10 00:34:19;;;;;;;;;;;20.10;76.80;;;;;;5026259;28;19913;-85
2022/07/10 00:36:45;;;;;;;;;;;20.10;77.00;;;;;;5025890;28;20348;-85
2022/07/10 00:39:10;;;;;;;;;;;20.10;77.30;;;;;;5026343;28;20338;-85
2022/07/10 00:41:36;;;;;;;;;;;20.00;77.80;;;;;;5025801;28;19920;-85
2022/07/10 00:44:02;;;;;;;;;;;20.00;78.00;;;;;;5026062;28;19952;-84
2022/07/10 00:46:28;;;;;;;;;;;19.90;78.30;;;;;;5025859;28;20685;-84
2022/07/10 00:48:54;;;;;;;;;;;19.80;78.70;;;;;;5025702;28;19923;-85
2022/07/10 00:51:21;;;;;;;;;;;19.80;79.30;;;;;;5025318;28;19909;-84
2022/07/10 00:53:48;;;;;;;;;;;19.80;79.20;;;;;;5026131;28;19913;-85
2022/07/10 00:56:17;;;;;;;;;;;19.90;79.30;;;;;;5025410;28;20724;-84
2022/07/10 00:58:43;;;;;;;;;;;19.80;79.40;;;;;;5025293;28;19916;-85
2022/07/10 01:01:09;;;;;;;;;;;19.80;80.10;;;;;;5025051;28;20376;-85
2022/07/10 01:03:35;;;;;;;;;;;19.70;80.40;;;;;;5025081;28;19908;-85
2022/07/10 01:06:00;;;;;;;;;;;19.60;80.60;;;;;;5025023;28;19916;-85
2022/07/10 01:08:27;;;;;;;;;;;19.70;80.40;;;;;;5025201;28;19992;-86
2022/07/10 01:10:52;;;;;;;;;;;19.50;81.50;;;;;;5025275;28;19976;-85
2022/07/10 01:13:18;;;;;;;;;;;19.40;82.00;;;;;;5024913;28;20787;-86
2022/07/10 01:15:44;;;;;;;;;;;19.40;82.50;;;;;;5007559;28;19909;-85
2022/07/10 01:18:10;;;;;;;;;;;19.30;83.50;;;;;;5025217;28;19944;-84
2022/07/10 01:20:36;;;;;;;;;;;19.10;84.60;;;;;;5024534;28;19948;-85
2022/07/10 01:23:01;;;;;;;;;;;19.30;83.30;;;;;;5025231;28;20007;-85
2022/07/10 01:25:27;;;;;;;;;;;19.20;84.10;;;;;;5023214;28;19975;-84
2022/07/10 01:27:53;;;;;;;;;;;19.20;84.60;;;;;;5024439;28;19909;-85
2022/07/10 01:30:20;;;;;;;;;;;19.10;85.30;;;;;;5024985;28;19999;-84
2022/07/10 01:32:46;;;;;;;;;;;19.10;86.10;;;;;;5024527;28;19931;-85
2022/07/10 01:35:12;;;;;;;;;;;19.10;85.90;;;;;;5024693;28;20003;-84
2022/07/10 01:37:38;;;;;;;;;;;19.00;86.80;;;;;;5024189;28;20320;-85
2022/07/10 01:40:04;;;;;;;;;;;18.90;88.00;;;;;;5015092;28;19979;-85
2022/07/10 01:42:30;;;;;;;;;;;18.90;88.40;;;;;;5006800;28;19913;-84
2022/07/10 01:44:55;;;;;;;;;;;18.90;88.50;;;;;;5024260;28;19917;-85
2022/07/10 01:47:24;;;;;;;;;;;18.80;89.70;;;;;;5006496;28;20461;-85
2022/07/10 01:49:53;;;;;;;;;;;18.70;90.10;;;;;;5024260;28;19963;-85
2022/07/10 01:52:19;;;;;;;;;;;18.60;90.80;;;;;;5024608;28;19971;-85
2022/07/10 01:54:45;;;;;;;;;;;18.60;91.00;;;;;;5024405;28;19952;-84
2022/07/10 01:57:10;;;;;;;;;;;18.70;91.20;;;;;;5024856;28;19909;-85
2022/07/10 01:59:36;;;;;;;;;;;18.60;91.20;;;;;;5024306;28;19912;-84
2022/07/10 02:02:01;;;;;;;;;;;18.60;91.20;;;;;;5024221;28;19913;-84
2022/07/10 02:04:42;;;;;;;;;;;18.60;91.10;;;;;;5023902;28;20755;-85
2022/07/10 02:07:14;;;;;;;;;;;18.70;90.90;;;;;;5024183;28;19913;-85
2022/07/10 02:09:40;;;;;;;;;;;18.70;90.30;;;;;;5005817;28;19990;-84
2022/07/10 02:12:06;;;;;;;;;;;18.70;90.40;;;;;;5024175;28;19909;-85
2022/07/10 02:14:32;;;;;;;;;;;18.80;90.10;;;;;;5024051;28;19908;-84
2022/07/10 02:16:57;;;;;;;;;;;18.80;90.30;;;;;;5023619;28;20258;-85
2022/07/10 02:19:23;;;;;;;;;;;18.80;90.20;;;;;;5024169;28;20360;-84
2022/07/10 02:21:49;;;;;;;;;;;18.80;90.30;;;;;;5023884;28;20357;-86
2022/07/10 02:24:15;;;;;;;;;;;18.70;90.20;;;;;;5024093;28;19916;-84
2022/07/10 02:26:40;;;;;;;;;;;18.70;90.40;;;;;;5023886;28;19909;-85
2022/07/10 02:29:06;;;;;;;;;;;18.50;91.00;;;;;;5024583;28;19943;-85
2022/07/10 02:31:34;;;;;;;;;;;18.60;91.10;;;;;;5023846;28;19909;-85
2022/07/10 02:34:00;;;;;;;;;;;18.60;90.90;;;;;;5023785;28;19909;-84
2022/07/10 02:36:26;;;;;;;;;;;18.40;91.50;;;;;;5024307;28;19924;-85
2022/07/10 02:38:51;;;;;;;;;;;18.50;91.60;;;;;;5023701;28;20293;-84
2022/07/10 02:41:17;;;;;;;;;;;18.30;92.30;;;;;;5023785;28;20502;-85
2022/07/10 02:43:42;;;;;;;;;;;18.40;92.10;;;;;;5023698;28;20577;-84
2022/07/10 02:46:08;;;;;;;;;;;18.20;93.10;;;;;;5023220;28;20002;-84
2022/07/10 02:48:34;;;;;;;;;;;18.10;94.20;;;;;;5023809;28;20359;-84
2022/07/10 02:50:59;;;;;;;;;;;18.20;93.80;;;;;;5023329;28;19909;-84
2022/07/10 02:53:25;;;;;;;;;;;18.10;94.10;;;;;;5023699;28;19909;-85
2022/07/10 02:55:50;;;;;;;;;;;18.20;93.90;;;;;;5023370;28;19913;-84
2022/07/10 02:58:17;;;;;;;;;;;18.10;94.60;;;;;;5023475;28;19943;-85
2022/07/10 03:00:43;;;;;;;;;;;18.00;94.70;;;;;;5022836;28;20321;-85
2022/07/10 03:03:08;;;;;;;;;;;18.00;94.70;;;;;;5023365;28;19935;-85
2022/07/10 03:05:34;;;;;;;;;;;18.00;94.80;;;;;;5023409;28;19910;-84
2022/07/10 03:08:00;;;;;;;;;;;17.90;95.30;;;;;;5023306;28;19909;-84
2022/07/10 03:10:25;;;;;;;;;;;17.90;95.10;;;;;;5023990;28;19909;-85
2022/07/10 03:12:51;;;;;;;;;;;18.00;94.50;;;;;;5023442;28;19948;-84
2022/07/10 03:15:17;;;;;;;;;;;18.00;94.80;;;;;;5022887;28;20016;-85
2022/07/10 03:17:42;;;;;;;;;;;17.90;94.90;;;;;;5005257;28;20468;-85
2022/07/10 03:20:08;;;;;;;;;;;17.90;95.50;;;;;;5022996;28;19936;-85
2022/07/10 03:22:34;;;;;;;;;;;18.00;95.00;;;;;;5025834;28;20281;-84
2022/07/10 03:25:00;;;;;;;;;;;17.80;96.10;;;;;;5027382;28;19909;-84
2022/07/10 03:27:26;;;;;;;;;;;17.80;95.80;;;;;;5027747;28;20302;-84
2022/07/10 03:29:51;;;;;;;;;;;17.80;96.10;;;;;;5027374;28;19928;-85
2022/07/10 03:32:17;;;;;;;;;;;17.80;95.80;;;;;;5008459;28;19916;-85
2022/07/10 03:34:42;;;;;;;;;;;17.70;95.90;;;;;;5027182;28;19915;-85
2022/07/10 03:37:08;;;;;;;;;;;17.70;96.20;;;;;;5027321;28;20832;-85
2022/07/10 03:39:34;;;;;;;;;;;17.70;96.50;;;;;;5011854;28;20382;-85
2022/07/10 03:41:59;;;;;;;;;;;17.60;97.20;;;;;;5027398;28;19963;-85
2022/07/10 03:44:25;;;;;;;;;;;17.60;97.50;;;;;;5027059;28;19909;-85
2022/07/10 03:46:50;;;;;;;;;;;17.60;97.50;;;;;;5027328;28;20324;-86
2022/07/10 03:49:16;;;;;;;;;;;17.40;98.00;;;;;;5027373;28;19920;-84
2022/07/10 03:51:41;;;;;;;;;;;17.50;97.80;;;;;;5027268;28;19978;-85
2022/07/10 03:54:07;;;;;;;;;;;17.60;97.10;;;;;;5027548;28;20539;-85
2022/07/10 03:59:16;;;;;;;;;;;17.70;96.40;;;;;;5026953;28;19959;-86
2022/07/10 04:01:42;;;;;;;;;;;17.70;96.50;;;;;;5026527;28;19917;-86
2022/07/10 04:04:07;;;;;;;;;;;17.60;96.80;;;;;;5026636;28;20378;-84
2022/07/10 04:06:33;;;;;;;;;;;17.40;97.50;;;;;;5026892;28;19912;-85
2022/07/10 04:08:58;;;;;;;;;;;17.40;97.80;;;;;;5026938;28;20007;-84
2022/07/10 04:11:24;;;;;;;;;;;17.30;98.60;;;;;;5026571;28;19987;-85
2022/07/10 04:13:49;;;;;;;;;;;17.20;99.80;;;;;;5026402;28;20298;-84
2022/07/10 04:16:15;;;;;;;;;;;17.20;99.90;;;;;;5026808;28;19920;-84
2022/07/10 04:18:41;;;;;;;;;;;17.30;99.00;;;;;;5027331;28;19912;-85
2022/07/10 04:21:06;;;;;;;;;;;17.30;99.00;;;;;;5026587;28;19917;-85
2022/07/10 04:23:32;;;;;;;;;;;17.40;98.90;;;;;;5026645;28;19909;-85
2022/07/10 04:25:58;;;;;;;;;;;17.40;98.50;;;;;;5026377;28;20405;-85
2022/07/10 04:28:24;;;;;;;;;;;17.40;98.70;;;;;;5026206;28;20047;-85
2022/07/10 04:30:49;;;;;;;;;;;17.40;98.80;;;;;;5026168;28;19909;-84
2022/07/10 04:33:15;;;;;;;;;;;17.60;98.40;;;;;;5025128;28;19975;-85
2022/07/10 04:35:40;;;;;;;;;;;18.20;96.00;;;;;;5026411;28;19908;-84
2022/07/10 04:38:06;;;;;;;;;;;18.70;93.30;;;;;;5026652;28;19909;-85
2022/07/10 04:40:32;;;;;;;;;;;19.20;91.30;;;;;;5025882;28;19971;-86
2022/07/10 04:42:57;;;;;;;;;;;19.60;88.70;;;;;;5026133;28;19913;-86
2022/07/10 04:45:23;;;;;;;;;;;19.90;87.30;;;;;;5026028;28;19931;-85
2022/07/10 04:47:50;;;;;;;;;;;20.00;85.40;;;;;;5026208;28;20297;-86
2022/07/10 04:50:16;;;;;;;;;;;20.20;84.50;;;;;;5025601;28;19913;-86
2022/07/10 04:52:42;;;;;;;;;;;20.50;82.90;;;;;;5025644;28;20329;-84
2022/07/10 04:55:07;;;;;;;;;;;20.70;81.30;;;;;;5025829;28;19908;-84
2022/07/10 04:57:33;;;;;;;;;;;20.90;81.10;;;;;;5025033;28;20455;-85
2022/07/10 04:59:59;;;;;;;;;;;21.20;79.60;;;;;;5024546;28;19948;-84
2022/07/10 05:02:25;;;;;;;;;;;21.50;77.70;;;;;;5025772;28;20031;-84
2022/07/10 05:04:50;;;;;;;;;;;21.60;77.20;;;;;;5025702;28;20384;-85
2022/07/10 05:07:16;;;;;;;;;;;21.70;76.90;;;;;;5025931;28;20013;-85
2022/07/10 05:09:41;;;;;;;;;;;22.00;75.50;;;;;;5025661;28;20941;-86
2022/07/10 05:12:07;;;;;;;;;;;22.20;74.90;;;;;;5025579;28;19909;-86
2022/07/10 05:14:32;;;;;;;;;;;22.50;73.60;;;;;;5025992;28;19967;-84
2022/07/10 05:16:58;;;;;;;;;;;22.80;73.20;;;;;;5026115;28;19916;-83
2022/07/10 05:19:24;;;;;;;;;;;22.60;72.10;;;;;;5025292;28;20412;-85
2022/07/10 05:21:49;;;;;;;;;;;21.60;75.70;;;;;;5025108;28;19924;-85
2022/07/10 05:24:15;;;;;;;;;;;21.80;76.10;;;;;;5025542;28;19957;-87
2022/07/10 05:26:41;;;;;;;;;;;21.70;75.80;;;;;;5026281;28;20385;-86
2022/07/10 05:29:06;;;;;;;;;;;22.00;75.30;;;;;;5025447;28;19913;-85
2022/07/10 05:31:32;;;;;;;;;;;22.90;73.70;;;;;;5024473;28;20521;-87
2022/07/10 05:33:57;;;;;;;;;;;23.40;70.30;;;;;;5032629;23;19925;-81
2022/07/10 05:36:23;;;;;;;;;;;23.70;68.90;;;;;;5021232;28;20075;-83
2022/07/10 05:38:48;;;;;;;;;;;23.90;67.60;;;;;;5023969;28;19971;-84
2022/07/10 05:41:14;;;;;;;;;;;24.80;67.10;;;;;;5025330;28;19967;-84
2022/07/10 05:43:40;;;;;;;;;;;25.10;65.40;;;;;;5037526;28;19916;-84
2022/07/10 05:46:05;;;;;;;;;;;25.50;64.10;;;;;;5039086;28;20384;-84
2022/07/10 05:48:31;;;;;;;;;;;25.60;64.20;;;;;;5023659;28;19920;-83
2022/07/10 05:50:56;;;;;;;;;;;25.70;63.30;;;;;;5020245;28;19952;-84
2022/07/10 05:53:22;;;;;;;;;;;25.20;62.90;;;;;;4997414;28;19956;-84
2022/07/10 05:55:48;;;;;;;;;;;25.40;62.70;;;;;;5023977;28;19913;-83
2022/07/10 05:58:14;;;;;;;;;;;25.50;61.20;;;;;;5009381;28;19913;-83
2022/07/10 06:00:39;;;;;;;;;;;25.80;61.30;;;;;;5019172;28;20399;-83
2022/07/10 06:03:05;;;;;;;;;;;25.70;61.60;;;;;;5021947;28;19913;-81
2022/07/10 06:05:31;;;;;;;;;;;25.90;61.40;;;;;;5023765;28;19960;-88
2022/07/10 06:07:56;;;;;;;;;;;25.70;62.30;;;;;;5007531;28;20012;-86
2022/07/10 06:10:22;;;;;;;;;;;26.00;61.30;;;;;;5023034;28;19913;-86
2022/07/10 06:12:47;;;;;;;;;;;26.10;60.60;;;;;;5021763;28;19944;-89
2022/07/10 06:15:13;;;;;;;;;;;26.40;59.90;;;;;;5023489;28;19908;-86
2022/07/10 06:17:38;;;;;;;;;;;27.10;58.20;;;;;;5012820;28;19972;-88
2022/07/10 06:20:04;;;;;;;;;;;27.40;58.20;;;;;;5023320;28;19916;-86
2022/07/10 06:22:30;;;;;;;;;;;28.20;57.10;;;;;;5023495;28;20388;-87
2022/07/10 06:24:56;;;;;;;;;;;27.50;58.30;;;;;;5022957;28;19905;-86
2022/07/10 06:27:21;;;;;;;;;;;27.40;57.50;;;;;;5023550;28;20000;-86
2022/07/10 06:29:47;;;;;;;;;;;27.30;57.30;;;;;;5020998;28;19913;-86
2022/07/10 06:32:13;;;;;;;;;;;27.40;56.50;;;;;;5001886;28;20004;-90
2022/07/10 06:34:38;;;;;;;;;;;27.40;56.30;;;;;;5025609;28;19920;-89
2022/07/10 06:37:04;;;;;;;;;;;27.20;56.40;;;;;;5026107;28;19987;-89
2022/07/10 06:39:33;;;;;;;;;;;27.90;57.30;;;;;;5007012;28;19908;-88
2022/07/10 06:42:00;;;;;;;;;;;27.90;57.70;;;;;;5024487;28;20007;-86
2022/07/10 06:44:25;;;;;;;;;;;28.10;55.70;;;;;;5006969;28;19916;-86
2022/07/10 06:49:35;;;;;;;;;;;29.00;54.80;;;;;;5012455;28;20015;-87
2022/07/10 06:52:00;;;;;;;;;;;28.80;54.30;;;;;;5025538;28;19909;-89
2022/07/10 06:54:26;;;;;;;;;;;28.70;53.80;;;;;;5024782;28;20004;-88
2022/07/10 06:56:52;;;;;;;;;;;29.50;54.50;;;;;;5024713;28;19909;-87
2022/07/10 06:59:18;;;;;;;;;;;29.80;53.30;;;;;;5025120;28;20647;-89
2022/07/10 07:01:43;;;;;;;;;;;30.10;51.90;;;;;;5015859;28;19917;-90
2022/07/10 07:04:09;;;;;;;;;;;29.10;52.60;;;;;;5019628;28;19944;-79
2022/07/10 07:06:35;;;;;;;;;;;30.10;51.50;;;;;;5024101;28;19909;-79
2022/07/10 07:09:00;;;;;;;;;;;30.30;52.90;;;;;;5023587;28;19920;-79
2022/07/10 07:11:26;;;;;;;;;;;30.00;51.80;;;;;;5022969;28;20126;-79
2022/07/10 07:13:51;;;;;;;;;;;29.60;51.50;;;;;;5024155;28;19917;-79
2022/07/10 07:16:19;;;;;;;;;;;30.50;51.70;;;;;;5024089;28;19933;-79
2022/07/10 07:18:52;;;;;;;;;;;30.60;50.20;;;;;;5024069;28;20027;-79
2022/07/10 07:24:03;;;;;;;;;;;30.30;50.00;;;;;;5022607;28;19923;-77
2022/07/10 07:26:29;;;;;;;;;;;31.40;49.60;;;;;;5023800;28;19909;-77
2022/07/10 07:28:55;;;;;;;;;;;31.10;50.00;;;;;;5023464;28;19912;-79
2022/07/10 07:31:20;;;;;;;;;;;31.70;49.20;;;;;;5021496;28;19958;-78
2022/07/10 07:33:46;;;;;;;;;;;31.90;48.90;;;;;;5012085;28;19921;-78
2022/07/10 07:36:42;;;;;;;;;;;32.20;48.80;;;;;;5005567;28;19924;-80
2022/07/10 07:39:08;;;;;;;;;;;31.80;49.10;;;;;;5017407;28;20292;-77
2022/07/10 07:41:33;;;;;;;;;;;32.30;48.90;;;;;;5017114;28;20442;-77
2022/07/10 07:43:59;;;;;;;;;;;33.50;48.30;;;;;;5010948;28;20388;-78
2022/07/10 07:46:24;;;;;;;;;;;32.90;49.10;;;;;;5017141;28;19972;-78
2022/07/10 07:48:50;;;;;;;;;;;32.70;49.40;;;;;;5017155;28;20000;-78
2022/07/10 07:51:15;;;;;;;;;;;33.60;48.50;;;;;;5016958;28;20079;-78
2022/07/10 07:53:41;;;;;;;;;;;33.80;46.40;;;;;;5016802;28;20277;-78
2022/07/10 07:56:07;;;;;;;;;;;34.30;47.10;;;;;;4993283;28;20399;-77
2022/07/10 07:58:32;;;;;;;;;;;33.80;45.60;;;;;;5014891;28;19919;-77
2022/07/10 08:00:58;;;;;;;;;;;33.90;46.70;;;;;;5015152;28;19948;-77
2022/07/10 08:03:23;;;;;;;;;;;34.90;45.70;;;;;;5012794;28;20337;-78
2022/07/10 08:05:49;;;;;;;;;;;35.20;45.50;;;;;;5014843;28;19919;-78
2022/07/10 08:08:15;;;;;;;;;;;35.90;45.40;;;;;;5015714;28;19924;-79
2022/07/10 08:10:41;;;;;;;;;;;34.50;45.50;;;;;;5017618;28;19913;-78
2022/07/10 08:13:06;;;;;;;;;;;35.20;46.70;;;;;;5019422;28;20012;-79
2022/07/10 08:15:34;;;;;;;;;;;35.70;44.30;;;;;;5020071;28;19955;-78
2022/07/10 08:18:00;;;;;;;;;;;35.30;44.90;;;;;;5025773;28;19932;-79
2022/07/10 08:20:26;;;;;;;;;;;35.30;44.20;;;;;;5021302;28;19968;-80
2022/07/10 08:22:53;;;;;;;;;;;36.00;45.80;;;;;;5020535;28;20508;-80
2022/07/10 08:25:19;;;;;;;;;;;35.30;45.30;;;;;;5015415;28;19913;-80
2022/07/10 08:27:45;;;;;;;;;;;34.80;46.80;;;;;;5019126;28;19916;-80
2022/07/10 08:30:11;;;;;;;;;;;35.40;45.10;;;;;;5016136;28;20421;-80
2022/07/10 08:32:37;;;;;;;;;;;35.50;45.00;;;;;;5018145;28;20364;-80
2022/07/10 08:35:03;;;;;;;;;;;34.70;44.00;;;;;;5022839;28;19925;-81
2022/07/10 08:37:29;;;;;;;;;;;35.20;44.60;;;;;;5017511;28;19920;-81
2022/07/10 08:39:54;;;;;;;;;;;35.50;43.70;;;;;;5018304;28;19913;-80
2022/07/10 08:42:20;;;;;;;;;;;35.70;43.50;;;;;;5022066;28;20702;-81
2022/07/10 08:44:46;;;;;;;;;;;35.60;43.40;;;;;;5020458;28;20307;-81
2022/07/10 08:47:12;;;;;;;;;;;36.40;44.70;;;;;;5006074;28;20383;-81
2022/07/10 08:49:37;;;;;;;;;;;36.20;42.10;;;;;;5024156;28;19909;-81
2022/07/10 08:52:04;;;;;;;;;;;37.00;45.20;;;;;;5023190;28;19916;-80
2022/07/10 08:54:31;;;;;;;;;;;37.60;41.70;;;;;;5006656;28;19917;-81
2022/07/10 08:56:57;;;;;;;;;;;36.40;42.90;;;;;;5023157;28;19913;-81
2022/07/10 08:59:23;;;;;;;;;;;36.30;44.40;;;;;;5023101;28;19976;-81
2022/07/10 09:01:49;;;;;;;;;;;37.10;43.30;;;;;;5024528;28;20008;-80
2022/07/10 09:04:18;;;;;;;;;;;36.90;43.70;;;;;;5021685;28;20642;-81
2022/07/10 09:06:44;;;;;;;;;;;37.90;43.50;;;;;;5023641;28;20733;-81
2022/07/10 09:09:11;;;;;;;;;;;37.70;44.80;;;;;;5023382;28;19954;-82
2022/07/10 09:11:40;;;;;;;;;;;37.90;42.30;;;;;;5021801;28;19917;-82
2022/07/10 09:14:11;;;;;;;;;;;38.30;41.10;;;;;;5014654;28;19913;-81
2022/07/10 09:16:38;;;;;;;;;;;38.70;41.80;;;;;;5032511;28;20665;-81
2022/07/10 09:19:20;;;;;;;;;;;38.50;42.30;;;;;;5010461;28;19913;-81
2022/07/10 09:21:46;;;;;;;;;;;38.60;41.90;;;;;;5011121;28;20048;-81
2022/07/10 09:24:12;;;;;;;;;;;37.60;40.30;;;;;;5010386;28;19921;-80
2022/07/10 09:27:11;;;;;;;;;;;38.40;41.30;;;;;;5014737;28;19917;-82
2022/07/10 09:29:47;;;;;;;;;;;38.40;41.20;;;;;;5010727;28;19943;-81
2022/07/10 09:32:12;;;;;;;;;;;38.10;42.40;;;;;;5012936;28;19919;-81
2022/07/10 09:37:41;;;;;;;;;;;38.50;40.20;;;;;;5017841;28;19919;-78
2022/07/10 09:40:07;;;;;;;;;;;37.30;42.00;;;;;;5013284;28;20020;-78
2022/07/10 09:42:33;;;;;;;;;;;37.90;43.10;;;;;;5015552;28;20022;-78
2022/07/10 09:45:17;;;;;;;;;;;40.00;41.00;;;;;;5017051;28;20003;-80
2022/07/10 09:47:56;;;;;;;;;;;39.00;41.80;;;;;;5018619;28;20000;-83
2022/07/10 09:50:26;;;;;;;;;;;37.80;42.00;;;;;;5012722;28;19912;-80
2022/07/10 09:52:52;;;;;;;;;;;38.40;43.80;;;;;;5019414;28;20499;-79
2022/07/10 09:55:22;;;;;;;;;;;38.70;40.60;;;;;;5001588;28;20004;-79
2022/07/10 09:57:55;;;;;;;;;;;38.90;40.10;;;;;;5018423;28;19917;-79
2022/07/10 10:00:45;;;;;;;;;;;38.60;41.40;;;;;;5015662;28;20478;-80
2022/07/10 10:03:11;;;;;;;;;;;37.20;41.10;;;;;;5018161;28;19952;-80
2022/07/10 10:05:45;;;;;;;;;;;37.50;42.00;;;;;;5019878;28;20121;-79
2022/07/10 10:08:24;;;;;;;;;;;37.90;40.70;;;;;;5022811;28;19913;-79
2022/07/10 10:10:51;;;;;;;;;;;38.20;41.20;;;;;;5011213;28;19909;-77
2022/07/10 10:13:30;;;;;;;;;;;38.80;40.90;;;;;;5009086;28;19918;-79
2022/07/10 10:15:56;;;;;;;;;;;37.90;42.50;;;;;;5000170;28;20328;-78
2022/07/10 10:18:24;;;;;;;;;;;38.30;40.10;;;;;;5019545;28;19913;-80
2022/07/10 10:20:51;;;;;;;;;;;38.30;40.90;;;;;;5022551;28;20424;-80
2022/07/10 10:23:18;;;;;;;;;;;37.70;40.20;;;;;;5021454;28;19919;-80
2022/07/10 10:25:44;;;;;;;;;;;38.30;40.90;;;;;;5023243;28;19963;-80
2022/07/10 10:28:11;;;;;;;;;;;38.30;41.50;;;;;;5006573;28;19909;-80
2022/07/10 10:30:41;;;;;;;;;;;39.30;41.70;;;;;;5022098;28;20020;-80
2022/07/10 10:33:25;;;;;;;;;;;38.60;41.70;;;;;;5010375;28;20413;-80
2022/07/10 10:35:51;;;;;;;;;;;39.20;41.40;;;;;;5011052;28;20451;-80
2022/07/10 10:38:17;;;;;;;;;;;38.80;39.80;;;;;;5024216;28;19920;-80
2022/07/10 10:40:42;;;;;;;;;;;37.90;39.30;;;;;;5024161;28;19917;-80
2022/07/10 10:43:18;;;;;;;;;;;38.00;39.80;;;;;;5024378;28;19909;-80
2022/07/10 10:45:44;;;;;;;;;;;36.50;42.60;;;;;;5020357;28;19964;-80
2022/07/10 10:48:11;;;;;;;;;;;34.10;43.40;;;;;;5013929;28;19913;-80
2022/07/10 10:50:40;;;;;;;;;;;33.00;45.30;;;;;;5023951;28;19947;-80
2022/07/10 10:53:12;;;;;;;;;;;31.70;45.10;;;;;;5024295;28;19951;-80
2022/07/10 10:55:38;;;;;;;;;;;32.00;46.90;;;;;;5024199;28;19964;-80
2022/07/10 10:58:20;;;;;;;;;;;31.50;46.10;;;;;;5024536;28;20372;-80
2022/07/10 11:00:48;;;;;;;;;;;31.90;46.80;;;;;;5005367;28;19928;-80
2022/07/10 11:03:15;;;;;;;;;;;32.10;48.00;;;;;;5024595;28;19909;-80
2022/07/10 11:05:41;;;;;;;;;;;31.70;46.40;;;;;;5006452;28;19916;-85
2022/07/10 11:08:07;;;;;;;;;;;31.70;48.30;;;;;;5024358;28;19908;-85
2022/07/10 11:10:37;;;;;;;;;;;32.20;46.80;;;;;;5024423;28;19916;-85
2022/07/10 11:13:07;;;;;;;;;;;31.80;47.50;;;;;;5024550;28;20006;-85
2022/07/10 11:15:34;;;;;;;;;;;31.50;47.60;;;;;;5024049;28;19908;-85
2022/07/10 11:18:05;;;;;;;;;;;31.20;47.80;;;;;;5023964;28;19909;-85
2022/07/10 11:20:33;;;;;;;;;;;31.60;47.40;;;;;;5024479;28;19908;-85
2022/07/10 11:23:18;;;;;;;;;;;31.10;47.70;;;;;;5024134;28;20368;-84
2022/07/10 11:26:07;;;;;;;;;;;31.20;49.60;;;;;;5024469;28;20039;-84
2022/07/10 11:28:52;;;;;;;;;;;31.20;48.30;;;;;;5024298;28;19913;-85
2022/07/10 11:31:21;;;;;;;;;;;30.60;47.80;;;;;;5024341;28;19916;-84
2022/07/10 11:33:48;;;;;;;;;;;30.80;47.50;;;;;;5037860;28;19994;-84
2022/07/10 11:36:16;;;;;;;;;;;30.90;48.40;;;;;;5024298;28;19909;-85
2022/07/10 11:38:42;;;;;;;;;;;30.90;49.50;;;;;;5024180;28;19909;-85
2022/07/10 11:41:18;;;;;;;;;;;30.60;48.00;;;;;;5024297;28;19921;-84
2022/07/10 11:43:59;;;;;;;;;;;30.50;49.00;;;;;;5024881;28;20454;-84
2022/07/10 11:46:28;;;;;;;;;;;30.20;48.10;;;;;;5027916;28;19913;-85
2022/07/10 11:48:56;;;;;;;;;;;30.10;48.00;;;;;;5027422;28;19909;-84
2022/07/10 11:51:22;;;;;;;;;;;29.90;47.40;;;;;;5028270;28;20390;-85
2022/07/10 11:53:58;;;;;;;;;;;29.90;48.10;;;;;;5028155;28;20467;-85
2022/07/10 11:56:24;;;;;;;;;;;29.70;48.40;;;;;;5015842;28;19915;-85
2022/07/10 11:59:09;;;;;;;;;;;30.00;48.50;;;;;;5027560;28;19913;-85
2022/07/10 12:01:40;;;;;;;;;;;30.00;49.90;;;;;;5015730;28;19917;-85
2022/07/10 12:04:06;;;;;;;;;;;30.00;47.40;;;;;;5027655;28;20376;-80
2022/07/10 12:06:33;;;;;;;;;;;30.10;50.10;;;;;;5028384;28;20291;-80
2022/07/10 12:09:10;;;;;;;;;;;30.00;51.10;;;;;;5027985;28;20017;-80
2022/07/10 12:11:36;;;;;;;;;;;29.90;48.90;;;;;;5014736;28;19988;-80
2022/07/10 12:14:14;;;;;;;;;;;29.90;47.50;;;;;;5027670;28;20584;-80
2022/07/10 12:16:42;;;;;;;;;;;29.80;52.00;;;;;;5027238;28;19916;-80
2022/07/10 12:19:08;;;;;;;;;;;29.80;48.60;;;;;;5027110;28;19915;-80
2022/07/10 12:21:34;;;;;;;;;;;29.90;51.30;;;;;;5027160;28;20554;-80
2022/07/10 12:24:02;;;;;;;;;;;29.70;49.50;;;;;;5027506;28;20402;-80
2022/07/10 12:26:31;;;;;;;;;;;29.90;49.50;;;;;;5026825;28;19948;-80
2022/07/10 12:28:57;;;;;;;;;;;29.90;50.50;;;;;;5026853;28;19913;-80
2022/07/10 12:31:23;;;;;;;;;;;29.90;49.50;;;;;;5026774;28;20377;-80
2022/07/10 12:33:52;;;;;;;;;;;29.70;49.60;;;;;;5012759;28;19917;-80
2022/07/10 12:36:18;;;;;;;;;;;29.70;48.70;;;;;;5026756;28;20430;-80
2022/07/10 12:38:52;;;;;;;;;;;29.60;48.30;;;;;;5026760;28;19909;-80
2022/07/10 12:41:22;;;;;;;;;;;29.40;48.60;;;;;;5026336;28;19927;-79
2022/07/10 12:43:48;;;;;;;;;;;29.40;48.10;;;;;;5026945;28;19909;-80
2022/07/10 12:46:23;;;;;;;;;;;29.50;48.30;;;;;;5027215;28;19909;-80
2022/07/10 12:49:05;;;;;;;;;;;29.50;47.70;;;;;;5026858;28;19941;-80
2022/07/10 12:51:41;;;;;;;;;;;29.40;47.60;;;;;;5026734;28;19909;-79
2022/07/10 12:54:07;;;;;;;;;;;29.50;49.60;;;;;;5025674;28;20729;-80
2022/07/10 12:56:34;;;;;;;;;;;29.50;48.70;;;;;;5026019;28;19916;-80
2022/07/10 12:59:00;;;;;;;;;;;29.40;49.30;;;;;;5025937;28;20467;-80
2022/07/10 13:01:27;;;;;;;;;;;29.30;48.80;;;;;;5025895;28;20039;-80
2022/07/10 13:04:00;;;;;;;;;;;29.30;50.30;;;;;;5026536;28;20006;-80
2022/07/10 13:06:29;;;;;;;;;;;29.10;49.50;;;;;;5026204;28;19946;-80
2022/07/10 13:08:55;;;;;;;;;;;29.30;49.70;;;;;;5026109;28;19909;-80
2022/07/10 13:11:21;;;;;;;;;;;29.40;49.00;;;;;;5008125;28;20124;-80
2022/07/10 13:13:47;;;;;;;;;;;29.40;49.40;;;;;;5025994;28;19913;-79
2022/07/10 13:16:13;;;;;;;;;;;29.50;49.30;;;;;;5025646;28;19909;-80
2022/07/10 13:18:41;;;;;;;;;;;29.40;48.40;;;;;;5008070;28;19927;-80
2022/07/10 13:21:07;;;;;;;;;;;29.60;53.20;;;;;;5025979;28;19917;-80
2022/07/10 13:23:32;;;;;;;;;;;29.40;49.10;;;;;;5026357;28;19909;-80
2022/07/10 13:25:58;;;;;;;;;;;29.30;49.70;;;;;;5025647;28;19909;-80
2022/07/10 13:28:24;;;;;;;;;;;29.20;48.70;;;;;;5025730;28;19917;-80
2022/07/10 13:30:50;;;;;;;;;;;29.40;50.10;;;;;;5025393;28;19913;-80
2022/07/10 13:33:16;;;;;;;;;;;29.30;49.90;;;;;;5012552;28;19909;-80
2022/07/10 13:35:42;;;;;;;;;;;29.30;49.90;;;;;;5024199;28;20697;-80
2022/07/10 13:38:07;;;;;;;;;;;29.20;49.90;;;;;;5040340;28;19913;-80
2022/07/10 13:40:33;;;;;;;;;;;29.20;49.90;;;;;;5025359;28;19924;-80
2022/07/10 13:42:59;;;;;;;;;;;29.40;50.80;;;;;;5025537;28;20374;-80
2022/07/10 13:45:29;;;;;;;;;;;29.50;53.20;;;;;;5025419;28;19909;-80
2022/07/10 13:47:55;;;;;;;;;;;29.30;48.80;;;;;;5025497;28;19908;-80
2022/07/10 13:50:21;;;;;;;;;;;29.20;50.70;;;;;;5025657;28;19916;-80
2022/07/10 13:52:46;;;;;;;;;;;29.00;48.90;;;;;;5024823;28;19909;-80
2022/07/10 13:55:12;;;;;;;;;;;29.10;49.10;;;;;;5025339;28;19948;-79
2022/07/10 13:57:38;;;;;;;;;;;29.10;49.50;;;;;;5024993;28;19920;-80
2022/07/10 14:00:04;;;;;;;;;;;29.20;49.90;;;;;;5024940;28;19915;-80
2022/07/10 14:02:29;;;;;;;;;;;29.20;50.80;;;;;;5025110;28;20569;-80
2022/07/10 14:04:55;;;;;;;;;;;29.20;51.20;;;;;;5024784;28;19943;-80
2022/07/10 14:07:21;;;;;;;;;;;29.10;50.00;;;;;;5023970;28;19920;-80
2022/07/10 14:09:46;;;;;;;;;;;29.20;51.40;;;;;;5024672;28;20033;-80
2022/07/10 14:12:12;;;;;;;;;;;29.20;50.60;;;;;;5024878;28;19916;-80
2022/07/10 14:14:37;;;;;;;;;;;29.00;49.90;;;;;;5024562;28;19924;-80
2022/07/10 14:17:03;;;;;;;;;;;29.10;49.70;;;;;;5024851;28;19909;-80
2022/07/10 14:19:28;;;;;;;;;;;29.10;48.60;;;;;;5024441;28;19913;-80
2022/07/10 14:21:54;;;;;;;;;;;29.10;50.80;;;;;;5024455;28;20466;-80
2022/07/10 14:24:19;;;;;;;;;;;29.10;50.00;;;;;;5024596;28;19956;-80
2022/07/10 14:26:46;;;;;;;;;;;29.20;51.30;;;;;;5040023;28;19909;-80